Skip Navigation Links Skip Navigation Links

Current Weather

Wexford County, Cadillac, Mich.

For information only: do not use for flight planning or navigation.
Latest weather
Observation time Thursday, October 17, 2019 2:15 AM EDT
Local time Thursday, October 17, 2019 2:34 AM EDT
Flight conditions Visual Meteorological Conditions
Winds
Wind direction Northwest (310°)
Wind speed 8 mph
Visibility 10 mi.
Sky condition
Ceiling unlimited
Cloud layer scattered clouds 2,400 ft.
Cloud layer scattered clouds 3,200 ft.
Temperature 41°F
Dewpoint 38°F
Altimeter 29.85 in.Hg
Derived measurements
Relative humidity 90%
Wind chill 36°F
Density altitude 309 ft.
Remarks
Fully automated report.
Automated weather observing station with precipitation discriminator.
METAR KCAD 170615Z AUTO 31007KT 10SM SCT024 SCT032 05/03 A2985 RMK AO2 T00510036

Settings

Location code

InnerDrive.Weather 4.0.6770.0 Release CLR 4.0.30319.42000
Copyright ©2018 Inner Drive Technology. All rights reserved. Portions Copyright ©1986-2018 David Braverman.

Find weather

Site navigation


Skip Navigation Links

Place info

Page info

PayPal - The safer, easier way to pay online!

Return home.

Copyright ©2019 Inner Drive Technology. Purveyors of fine, hand-crafted computer software. Page printed 2019-10-17T06:34:07 UTC.